Kansas City, Missouri
Traffic Map
Current Weather Conditions
Kansas City, Missouri
Clear
Clear
62°
Feels Like: 62°
Wind Chill: 62° Ceiling: Unl
Heat Index: 62° Visibility: 10mi
Dew Point: 51° Wind: 3mph
Humidity: 67% Direction: 340° (NNW)
Pressure: 30.23in Gusts: 0mph
Raw Report DataKMKC 220354Z 34003KT 10SM CLR 17/11 A3023 RMK AO2 SLP234 T01670106
Traffic Incident Summary
Active as of:
Severity:
Category:
InformationThere was an issue retrieving the traffic information for this location. Please try a different location or try again shortly.
Advertisements
Track Severe Weather on mobile